createdAt,value
2022-11-26T00:01:20.309Z,101167.84
2022-11-26T00:03:47.555Z,101174.88
2022-11-26T00:06:23.582Z,101166.84
2022-11-26T00:08:50.200Z,101180.00
2022-11-26T00:11:16.987Z,101181.59
2022-11-26T00:13:43.593Z,101181.53
2022-11-26T00:16:13.905Z,101185.19
2022-11-26T00:18:41.797Z,101169.22
2022-11-26T00:21:26.542Z,101167.63
2022-11-26T00:23:54.617Z,101180.16
2022-11-26T00:26:23.693Z,101184.59
2022-11-26T00:29:00.691Z,101187.91
2022-11-26T00:31:28.842Z,101188.75
2022-11-26T00:33:55.508Z,101185.19
2022-11-26T00:36:25.674Z,101177.22
2022-11-26T00:38:55.790Z,101178.94
2022-11-26T00:41:24.930Z,101175.38
2022-11-26T00:43:51.762Z,101184.25
2022-11-26T00:46:20.765Z,101192.28
2022-11-26T00:48:47.764Z,101186.69
2022-11-26T00:51:20.147Z,101183.81
2022-11-26T00:53:48.210Z,101180.09
2022-11-26T00:56:18.469Z,101183.47
2022-11-26T00:58:46.385Z,101182.81
2022-11-26T01:01:17.408Z,101202.00
2022-11-26T01:03:44.440Z,101203.09
2022-11-26T01:06:19.986Z,101203.44
2022-11-26T01:08:47.549Z,101200.09
2022-11-26T01:11:20.549Z,101202.16
2022-11-26T01:13:49.411Z,101195.44
2022-11-26T01:16:26.608Z,101196.50
2022-11-26T01:18:56.797Z,101194.06
2022-11-26T01:21:25.839Z,101191.63
2022-11-26T01:23:52.779Z,101188.00
2022-11-26T01:26:28.898Z,101190.88
2022-11-26T01:28:55.851Z,101200.66
2022-11-26T01:31:28.293Z,101200.59
2022-11-26T01:33:55.739Z,101204.19
2022-11-26T01:36:32.845Z,101200.69
2022-11-26T01:39:02.660Z,101196.16
2022-11-26T01:42:00.097Z,101204.28
2022-11-26T01:44:30.704Z,101207.03
2022-11-26T01:46:58.821Z,101205.38
2022-11-26T01:49:33.556Z,101202.63
2022-11-26T01:52:18.622Z,101207.09
2022-11-26T01:54:46.029Z,101197.66
2022-11-26T01:57:29.785Z,101203.09
2022-11-26T02:00:01.457Z,101197.91
2022-11-26T02:02:29.327Z,101204.34
2022-11-26T02:05:17.769Z,101202.63
2022-11-26T02:07:45.167Z,101204.59
2022-11-26T02:10:13.668Z,101201.34
2022-11-26T02:12:41.380Z,101192.50
2022-11-26T02:15:09.061Z,101192.44
2022-11-26T02:18:08.718Z,101202.00
2022-11-26T02:20:58.497Z,101195.84
2022-11-26T02:23:52.197Z,101200.22
2022-11-26T02:26:56.038Z,101209.00
2022-11-26T02:29:30.669Z,101204.59
2022-11-26T02:32:06.351Z,101208.00
2022-11-26T02:34:47.653Z,101208.69
2022-11-26T02:37:30.092Z,101210.28
2022-11-26T02:39:57.494Z,101218.44
2022-11-26T02:42:29.948Z,101216.97
2022-11-26T02:45:04.266Z,101230.25
2022-11-26T02:47:32.826Z,101223.22
2022-11-26T02:50:03.045Z,101222.28
2022-11-26T02:52:31.886Z,101231.91
2022-11-26T02:54:59.793Z,101231.66
2022-11-26T02:57:30.505Z,101238.66
2022-11-26T02:59:57.413Z,101237.59
2022-11-26T03:02:52.561Z,101240.00
2022-11-26T03:05:20.493Z,101243.31
2022-11-26T03:07:51.064Z,101239.47
2022-11-26T03:10:20.253Z,101241.97
2022-11-26T03:12:47.368Z,101243.47
2022-11-26T03:15:13.904Z,101235.28
2022-11-26T03:17:40.422Z,101235.22
2022-11-26T03:20:07.850Z,101234.28
2022-11-26T03:22:34.409Z,101238.69
2022-11-26T03:25:00.901Z,101243.06
2022-11-26T03:27:27.424Z,101248.31
2022-11-26T03:29:53.917Z,101240.56
2022-11-26T03:32:20.497Z,101244.19
2022-11-26T03:34:47.025Z,101249.53
2022-11-26T03:37:14.025Z,101252.03
2022-11-26T03:39:41.013Z,101257.97
2022-11-26T03:42:07.673Z,101263.94
2022-11-26T03:44:34.172Z,101268.44
2022-11-26T03:47:00.841Z,101271.13
2022-11-26T03:49:27.451Z,101270.06
2022-11-26T03:51:54.028Z,101271.00
2022-11-26T03:54:20.623Z,101273.72
2022-11-26T03:56:47.121Z,101275.66
2022-11-26T03:59:13.654Z,101270.22
2022-11-26T04:01:40.242Z,101280.19
2022-11-26T04:04:06.927Z,101283.69
2022-11-26T04:06:33.421Z,101285.19
2022-11-26T04:09:00.064Z,101282.50
2022-11-26T04:11:26.542Z,101282.56
2022-11-26T04:13:53.094Z,101286.28
2022-11-26T04:16:20.837Z,101279.91
2022-11-26T04:18:48.257Z,101281.75
2022-11-26T04:21:14.831Z,101277.47
2022-11-26T04:23:41.441Z,101286.34
2022-11-26T04:26:07.974Z,101287.06
2022-11-26T04:28:34.514Z,101281.84
2022-11-26T04:31:01.131Z,101290.66
2022-11-26T04:33:27.746Z,101292.47
2022-11-26T04:35:54.960Z,101294.16
2022-11-26T04:38:25.685Z,101299.22
2022-11-26T04:40:52.898Z,101304.59
2022-11-26T04:43:19.405Z,101307.31
2022-11-26T04:45:45.969Z,101314.28
2022-11-26T04:48:12.578Z,101317.00
2022-11-26T04:50:39.120Z,101317.41
2022-11-26T04:53:05.655Z,101319.34
2022-11-26T04:55:32.202Z,101319.47
2022-11-26T04:57:59.287Z,101328.13
2022-11-26T05:00:26.348Z,101331.03
2022-11-26T05:02:53.055Z,101331.16
2022-11-26T05:05:19.695Z,101329.31
2022-11-26T05:07:46.389Z,101329.16
2022-11-26T05:10:13.266Z,101336.16
2022-11-26T05:12:39.886Z,101332.44
2022-11-26T05:15:07.017Z,101334.22
2022-11-26T05:17:33.577Z,101340.41
2022-11-26T05:20:00.094Z,101340.16
2022-11-26T05:22:26.849Z,101349.81
2022-11-26T05:24:53.391Z,101341.63
2022-11-26T05:27:19.915Z,101348.66
2022-11-26T05:29:46.430Z,101345.03
2022-11-26T05:32:13.029Z,101348.63
2022-11-26T05:34:39.745Z,101352.16
2022-11-26T05:37:06.372Z,101351.41
2022-11-26T05:39:32.882Z,101350.53
2022-11-26T05:42:00.363Z,101363.84
2022-11-26T05:44:29.127Z,101366.78
2022-11-26T05:46:55.620Z,101364.06
2022-11-26T05:49:22.175Z,101366.97
2022-11-26T05:51:48.764Z,101372.28
2022-11-26T05:54:15.669Z,101372.34
2022-11-26T05:56:43.396Z,101372.47
2022-11-26T05:59:10.473Z,101387.69
2022-11-26T06:01:37.411Z,101379.03
2022-11-26T06:04:04.304Z,101386.16
2022-11-26T06:06:31.060Z,101388.00
2022-11-26T06:08:57.579Z,101394.31
2022-11-26T06:11:24.225Z,101384.59
2022-11-26T06:13:50.735Z,101387.38
2022-11-26T06:16:17.673Z,101390.97
2022-11-26T06:18:44.316Z,101391.81
2022-11-26T06:21:11.387Z,101396.47
2022-11-26T06:23:37.926Z,101398.31
2022-11-26T06:26:12.374Z,101400.19
2022-11-26T06:28:39.617Z,101406.31
2022-11-26T06:31:07.992Z,101402.84
2022-11-26T06:33:34.552Z,101408.91
2022-11-26T06:36:02.448Z,101406.34
2022-11-26T06:38:29.094Z,101412.56
2022-11-26T06:41:04.106Z,101409.16
2022-11-26T06:43:30.824Z,101426.09
2022-11-26T06:46:05.776Z,101419.84
2022-11-26T06:48:32.918Z,101413.66
2022-11-26T06:51:14.586Z,101418.91
2022-11-26T06:53:41.596Z,101424.28
2022-11-26T06:56:17.787Z,101424.38
2022-11-26T06:58:46.886Z,101427.72
2022-11-26T07:01:23.681Z,101433.88
2022-11-26T07:03:50.860Z,101431.97
2022-11-26T07:06:25.967Z,101441.66
2022-11-26T07:08:54.415Z,101446.94
2022-11-26T07:11:21.444Z,101439.75
2022-11-26T07:13:48.558Z,101444.09
2022-11-26T07:16:15.682Z,101448.56
2022-11-26T07:18:42.448Z,101449.41
2022-11-26T07:21:11.911Z,101445.88
2022-11-26T07:23:39.280Z,101445.00
2022-11-26T07:26:07.416Z,101460.13
2022-11-26T07:28:34.883Z,101450.28
2022-11-26T07:31:03.366Z,101448.41
2022-11-26T07:33:30.021Z,101447.56
2022-11-26T07:36:00.931Z,101445.66
2022-11-26T07:38:28.541Z,101452.44
2022-11-26T07:40:55.822Z,101447.03
2022-11-26T07:43:22.351Z,101445.25
2022-11-26T07:45:48.952Z,101442.75
2022-11-26T07:48:17.006Z,101443.63
2022-11-26T07:50:45.027Z,101451.75
2022-11-26T07:53:13.372Z,101461.56
2022-11-26T07:55:40.581Z,101465.81
2022-11-26T07:58:07.086Z,101465.81
2022-11-26T08:00:33.640Z,101473.66
2022-11-26T08:03:00.241Z,101470.22
2022-11-26T08:05:26.839Z,101469.38
2022-11-26T08:07:53.417Z,101474.41
2022-11-26T08:10:19.987Z,101469.38
2022-11-26T08:12:46.739Z,101465.63
2022-11-26T08:15:13.368Z,101483.81
2022-11-26T08:17:39.920Z,101486.44
2022-11-26T08:20:07.156Z,101496.44
2022-11-26T08:22:33.648Z,101491.16
2022-11-26T08:25:00.209Z,101491.25
2022-11-26T08:27:26.722Z,101493.13
2022-11-26T08:29:53.213Z,101498.53
2022-11-26T08:32:19.720Z,101495.19
2022-11-26T08:34:46.264Z,101498.66
2022-11-26T08:37:12.778Z,101509.22
2022-11-26T08:39:39.444Z,101507.63
2022-11-26T08:42:06.077Z,101513.06
2022-11-26T08:44:32.628Z,101516.34
2022-11-26T08:46:59.145Z,101507.06
2022-11-26T08:49:25.803Z,101512.16
2022-11-26T08:51:55.817Z,101512.34
2022-11-26T08:54:23.581Z,101512.53
2022-11-26T08:56:50.054Z,101510.53
2022-11-26T08:59:17.584Z,101511.97
2022-11-26T09:01:44.190Z,101509.94
2022-11-26T09:04:10.797Z,101511.56
2022-11-26T09:06:37.341Z,101505.09
2022-11-26T09:09:15.659Z,101510.31
2022-11-26T09:11:57.378Z,101521.69
2022-11-26T09:14:26.730Z,101517.75
2022-11-26T09:16:55.459Z,101520.84
2022-11-26T09:19:23.047Z,101518.81
2022-11-26T09:21:50.040Z,101521.09
2022-11-26T09:24:17.717Z,101528.09
2022-11-26T09:26:44.570Z,101515.31
2022-11-26T09:29:16.620Z,101522.00
2022-11-26T09:32:15.397Z,101526.59
2022-11-26T09:34:32.193Z,101521.84
2022-11-26T09:36:58.785Z,101531.63
2022-11-26T09:39:25.305Z,101523.72
2022-11-26T09:42:04.336Z,101526.66
2022-11-26T09:44:55.717Z,101530.50
2022-11-26T09:47:51.550Z,101533.72
2022-11-26T09:50:27.588Z,101531.34
2022-11-26T09:53:02.312Z,101533.63
2022-11-26T09:55:31.795Z,101534.28
2022-11-26T09:58:16.237Z,101533.03
2022-11-26T10:00:46.692Z,101527.16
2022-11-26T10:03:22.258Z,101527.72
2022-11-26T10:06:04.766Z,101525.84
2022-11-26T10:08:55.840Z,101520.03
2022-11-26T10:11:34.605Z,101519.72
2022-11-26T10:14:04.379Z,101518.47
2022-11-26T10:16:55.563Z,101518.31
2022-11-26T10:19:43.482Z,101520.81
2022-11-26T10:22:25.986Z,101522.53
2022-11-26T10:24:53.222Z,101527.44
2022-11-26T10:27:23.171Z,101522.56
2022-11-26T10:30:16.952Z,101522.19
2022-11-26T10:32:45.620Z,101530.69
2022-11-26T10:35:18.374Z,101526.81
2022-11-26T10:37:45.821Z,101523.75
2022-11-26T10:40:25.967Z,101523.50
2022-11-26T10:43:14.153Z,101528.44
2022-11-26T10:45:40.660Z,101530.56
2022-11-26T10:48:23.033Z,101527.53
2022-11-26T10:51:28.329Z,101535.28
2022-11-26T10:53:57.639Z,101533.34
2022-11-26T10:56:35.092Z,101525.72
2022-11-26T10:59:14.460Z,101531.28
2022-11-26T11:01:41.749Z,101526.44
2022-11-26T11:04:30.335Z,101531.22
2022-11-26T11:06:57.752Z,101529.81
2022-11-26T11:09:25.072Z,101531.47
2022-11-26T11:12:23.970Z,101515.44
2022-11-26T11:14:51.692Z,101513.38
2022-11-26T11:17:39.938Z,101514.00
2022-11-26T11:20:15.431Z,101511.78
2022-11-26T11:22:43.405Z,101507.06
2022-11-26T11:25:23.287Z,101518.06
2022-11-26T11:27:50.443Z,101508.66
2022-11-26T11:30:29.434Z,101510.75
2022-11-26T11:32:57.318Z,101508.88
2022-11-26T11:35:25.521Z,101504.22
2022-11-26T11:37:54.726Z,101508.94
2022-11-26T11:40:27.355Z,101498.41
2022-11-26T11:43:02.946Z,101501.00
2022-11-26T11:45:47.308Z,101503.66
2022-11-26T11:49:24.440Z,101509.72
2022-11-26T11:52:07.787Z,101502.78
2022-11-26T11:54:42.155Z,101501.88
2022-11-26T11:57:33.025Z,101501.69
2022-11-26T12:00:15.243Z,101503.66
2022-11-26T12:03:12.503Z,101502.78
2022-11-26T12:06:23.277Z,101501.00
2022-11-26T12:08:52.845Z,101498.06
2022-11-26T12:11:31.729Z,101503.25
2022-11-26T12:14:13.554Z,101496.69
2022-11-26T12:16:45.023Z,101491.78
2022-11-26T12:19:29.613Z,101500.50
2022-11-26T12:22:08.609Z,101505.09
2022-11-26T12:25:07.830Z,101500.31
2022-11-26T12:27:41.865Z,101503.78
2022-11-26T12:30:18.481Z,101499.41
2022-11-26T12:33:11.879Z,101501.63
2022-11-26T12:36:07.958Z,101503.53
2022-11-26T12:38:48.818Z,101507.16
2022-11-26T12:41:20.982Z,101493.94
2022-11-26T12:43:59.568Z,101505.31
2022-11-26T12:46:44.657Z,101499.97
2022-11-26T12:49:29.597Z,101501.81
2022-11-26T12:52:33.748Z,101501.53
2022-11-26T12:55:28.561Z,101503.25
2022-11-26T12:58:08.720Z,101502.16
2022-11-26T13:00:36.511Z,101499.06
2022-11-26T13:03:05.469Z,101504.56
2022-11-26T13:05:34.532Z,101495.16
2022-11-26T13:08:17.007Z,101495.50
2022-11-26T13:10:46.225Z,101495.41
2022-11-26T13:13:41.701Z,101505.19
2022-11-26T13:16:27.234Z,101493.16
2022-11-26T13:19:06.432Z,101497.50
2022-11-26T13:22:01.789Z,101504.75
2022-11-26T13:24:53.879Z,101503.19
2022-11-26T13:27:35.616Z,101502.72
2022-11-26T13:30:14.699Z,101508.28
2022-11-26T13:33:18.629Z,101507.38
2022-11-26T13:35:59.621Z,101513.00
2022-11-26T13:38:44.405Z,101506.09
2022-11-26T13:41:31.255Z,101508.16
2022-11-26T13:44:10.859Z,101511.78
2022-11-26T13:46:41.701Z,101505.56
2022-11-26T13:49:11.490Z,101508.34
2022-11-26T13:51:47.533Z,101514.56
2022-11-26T13:54:20.508Z,101521.53
2022-11-26T13:56:48.674Z,101517.31
2022-11-26T13:59:28.059Z,101529.03
2022-11-26T14:01:55.574Z,101526.38
2022-11-26T14:04:22.065Z,101525.56
2022-11-26T14:07:03.708Z,101527.38
2022-11-26T14:09:42.404Z,101526.63
2022-11-26T14:12:09.806Z,101535.50
2022-11-26T14:14:39.208Z,101523.06
2022-11-26T14:17:08.608Z,101528.50
2022-11-26T14:19:41.348Z,101528.69
2022-11-26T14:22:20.237Z,101522.69
2022-11-26T14:24:49.785Z,101522.94
2022-11-26T14:27:16.236Z,101522.84
2022-11-26T14:29:44.089Z,101514.75
2022-11-26T14:32:14.953Z,101515.53
2022-11-26T14:34:49.142Z,101517.16
2022-11-26T14:37:18.169Z,101512.84
2022-11-26T14:39:44.749Z,101515.53
2022-11-26T14:42:18.400Z,101521.91
2022-11-26T14:44:45.036Z,101527.97
2022-11-26T14:47:19.962Z,101513.81
2022-11-26T14:49:55.768Z,101520.09
2022-11-26T14:52:26.315Z,101521.31
2022-11-26T14:54:56.379Z,101526.88
2022-11-26T14:57:35.349Z,101528.78
2022-11-26T15:00:07.634Z,101537.81
2022-11-26T15:02:39.839Z,101545.22
2022-11-26T15:05:17.149Z,101547.25
2022-11-26T15:07:44.681Z,101549.16
2022-11-26T15:10:13.929Z,101546.56
2022-11-26T15:12:42.077Z,101550.44
2022-11-26T15:15:21.538Z,101563.06
2022-11-26T15:17:55.499Z,101553.38
2022-11-26T15:20:24.602Z,101553.53
2022-11-26T15:22:54.474Z,101548.34
2022-11-26T15:25:25.989Z,101552.06
2022-11-26T15:28:06.723Z,101554.94
2022-11-26T15:30:36.394Z,101555.09
2022-11-26T15:33:12.386Z,101554.47
2022-11-26T15:35:40.084Z,101557.13
2022-11-26T15:38:14.453Z,101553.75
2022-11-26T15:40:55.549Z,101553.19
2022-11-26T15:43:30.274Z,101550.69
2022-11-26T15:46:17.010Z,101555.84
2022-11-26T15:48:53.243Z,101561.97
2022-11-26T15:51:35.981Z,101559.31
2022-11-26T15:54:06.241Z,101559.47
2022-11-26T15:56:36.981Z,101552.63
2022-11-26T15:59:13.328Z,101564.63
2022-11-26T16:01:44.723Z,101548.13
2022-11-26T16:04:49.768Z,101565.31
2022-11-26T16:07:22.432Z,101564.09
2022-11-26T16:09:50.820Z,101554.13
2022-11-26T16:12:26.788Z,101554.06
2022-11-26T16:14:53.360Z,101552.91
2022-11-26T16:17:20.892Z,101563.25
2022-11-26T16:19:56.448Z,101547.88
2022-11-26T16:22:28.595Z,101562.66
2022-11-26T16:25:18.896Z,101563.81
2022-11-26T16:28:09.950Z,101561.19
2022-11-26T16:30:42.025Z,101564.91
2022-11-26T16:33:08.545Z,101561.75
2022-11-26T16:35:51.203Z,101565.69
2022-11-26T16:38:26.544Z,101560.34
2022-11-26T16:40:54.178Z,101559.97
2022-11-26T16:43:21.709Z,101553.03
2022-11-26T16:45:50.522Z,101551.91
2022-11-26T16:48:26.801Z,101552.59
2022-11-26T16:50:56.581Z,101554.25
2022-11-26T16:53:23.667Z,101555.00
2022-11-26T16:55:52.213Z,101546.97
2022-11-26T16:58:27.465Z,101553.38
2022-11-26T17:00:54.692Z,101546.94
2022-11-26T17:03:24.885Z,101558.66
2022-11-26T17:05:55.197Z,101555.44
2022-11-26T17:08:21.832Z,101560.94
2022-11-26T17:10:48.874Z,101564.53
2022-11-26T17:13:15.736Z,101570.59
2022-11-26T17:15:43.577Z,101565.78
2022-11-26T17:18:18.982Z,101569.13
2022-11-26T17:20:46.036Z,101584.63
2022-11-26T17:23:13.244Z,101573.94
2022-11-26T17:25:39.903Z,101586.25
2022-11-26T17:28:11.989Z,101583.75
2022-11-26T17:30:39.626Z,101587.41
2022-11-26T17:33:07.174Z,101582.91
2022-11-26T17:35:33.799Z,101586.09
2022-11-26T17:38:00.601Z,101581.78
2022-11-26T17:40:28.911Z,101583.06
2022-11-26T17:42:56.169Z,101586.84
2022-11-26T17:45:22.904Z,101581.56
2022-11-26T17:47:49.840Z,101579.94
2022-11-26T17:50:24.416Z,101589.81
2022-11-26T17:52:51.019Z,101581.38
2022-11-26T17:55:18.734Z,101577.63
2022-11-26T17:57:45.368Z,101578.16
2022-11-26T18:00:16.453Z,101585.44
2022-11-26T18:02:43.792Z,101587.34
2022-11-26T18:05:11.277Z,101584.47
2022-11-26T18:07:38.758Z,101577.53
2022-11-26T18:10:09.449Z,101579.19
2022-11-26T18:12:35.945Z,101572.06
2022-11-26T18:15:04.020Z,101581.75
2022-11-26T18:17:30.935Z,101573.78
2022-11-26T18:19:57.489Z,101577.38
2022-11-26T18:22:25.761Z,101583.44
2022-11-26T18:24:57.333Z,101579.84
2022-11-26T18:27:26.979Z,101578.09
2022-11-26T18:29:53.558Z,101583.16
2022-11-26T18:32:20.316Z,101578.66
2022-11-26T18:34:49.495Z,101573.94
2022-11-26T18:37:17.174Z,101572.84
2022-11-26T18:39:43.872Z,101576.19
2022-11-26T18:44:57.878Z,101571.38
2022-11-26T18:47:24.568Z,101568.63
2022-11-26T18:49:51.224Z,101571.84
2022-11-26T18:52:17.797Z,101565.66
2022-11-26T18:54:44.359Z,101571.81
2022-11-26T18:57:10.830Z,101575.03
2022-11-26T18:59:37.846Z,101575.75
2022-11-26T19:02:04.974Z,101573.94
2022-11-26T19:04:31.561Z,101586.25
2022-11-26T19:06:58.105Z,101581.69
2022-11-26T19:09:24.637Z,101589.47
2022-11-26T19:11:54.267Z,101586.75
2022-11-26T19:14:21.332Z,101594.75
2022-11-26T19:16:50.215Z,101593.13
2022-11-26T19:19:16.955Z,101594.00
2022-11-26T19:21:43.555Z,101586.06
2022-11-26T19:24:11.758Z,101588.59
2022-11-26T19:26:39.021Z,101588.53
2022-11-26T19:29:06.769Z,101589.41
2022-11-26T19:31:36.115Z,101586.69
2022-11-26T19:34:08.950Z,101586.63
2022-11-26T19:36:36.717Z,101597.03
2022-11-26T19:39:04.929Z,101603.09
2022-11-26T19:41:31.765Z,101610.19
2022-11-26T19:44:00.447Z,101608.38
2022-11-26T19:46:27.682Z,101615.50
2022-11-26T19:48:55.725Z,101605.69
2022-11-26T19:51:24.493Z,101610.91
2022-11-26T19:53:53.636Z,101607.44
2022-11-26T19:56:28.719Z,101607.31
2022-11-26T19:58:57.780Z,101609.06
2022-11-26T20:01:26.000Z,101616.84
2022-11-26T20:03:52.891Z,101610.53
2022-11-26T20:06:28.441Z,101614.19
2022-11-26T20:08:56.195Z,101617.72
2022-11-26T20:11:23.402Z,101624.09
2022-11-26T20:13:50.661Z,101621.44
2022-11-26T20:16:44.220Z,101625.91
2022-11-26T20:19:11.549Z,101627.88
2022-11-26T20:21:38.292Z,101614.69
2022-11-26T20:24:08.141Z,101614.69
2022-11-26T20:26:38.040Z,101614.44
2022-11-26T20:29:11.983Z,101615.25
2022-11-26T20:31:42.910Z,101614.44
2022-11-26T20:34:09.432Z,101610.03
2022-11-26T20:36:36.220Z,101607.44
2022-11-26T20:39:02.907Z,101606.63
2022-11-26T20:41:30.064Z,101613.81
2022-11-26T20:43:59.430Z,101615.56
2022-11-26T20:46:27.305Z,101608.41
2022-11-26T20:48:54.254Z,101604.03
2022-11-26T20:51:22.158Z,101617.38
2022-11-26T20:53:50.589Z,101612.94
2022-11-26T20:56:19.327Z,101620.03
2022-11-26T20:58:46.122Z,101610.41
2022-11-26T21:01:19.080Z,101613.88
2022-11-26T21:03:46.210Z,101617.38
2022-11-26T21:06:14.261Z,101620.00
2022-11-26T21:08:41.997Z,101611.16
2022-11-26T21:11:08.909Z,101606.44
2022-11-26T21:13:37.948Z,101604.72
2022-11-26T21:16:06.333Z,101608.25
2022-11-26T21:18:33.377Z,101603.72
2022-11-26T21:21:00.312Z,101606.38
2022-11-26T21:23:27.365Z,101610.84
2022-11-26T21:25:54.478Z,101615.41
2022-11-26T21:28:21.064Z,101612.69
2022-11-26T21:30:47.639Z,101618.91
2022-11-26T21:33:14.429Z,101609.97
2022-11-26T21:35:40.956Z,101612.59
2022-11-26T21:38:07.464Z,101616.25
2022-11-26T21:40:34.025Z,101615.25
2022-11-26T21:43:00.529Z,101611.72
2022-11-26T21:45:27.848Z,101614.56
2022-11-26T21:47:54.509Z,101621.63
2022-11-26T21:50:21.036Z,101625.97
2022-11-26T21:52:47.605Z,101634.88
2022-11-26T21:55:14.166Z,101634.06
2022-11-26T21:57:40.718Z,101644.66
2022-11-26T22:00:07.859Z,101642.78
2022-11-26T22:02:34.447Z,101637.47
2022-11-26T22:05:00.995Z,101641.94
2022-11-26T22:07:27.821Z,101644.59
2022-11-26T22:09:54.606Z,101643.66
2022-11-26T22:12:21.088Z,101645.38
2022-11-26T22:14:47.744Z,101633.91
2022-11-26T22:17:14.259Z,101641.88
2022-11-26T22:19:41.040Z,101636.59
2022-11-26T22:22:07.817Z,101634.06
2022-11-26T22:24:34.349Z,101634.78
2022-11-26T22:27:00.916Z,101633.00
2022-11-26T22:29:27.408Z,101627.59
2022-11-26T22:31:53.956Z,101627.50
2022-11-26T22:34:24.726Z,101624.59
2022-11-26T22:36:51.701Z,101623.50
2022-11-26T22:39:19.038Z,101630.50
2022-11-26T22:41:46.872Z,101627.16
2022-11-26T22:44:14.697Z,101629.81
2022-11-26T22:46:41.237Z,101628.00
2022-11-26T22:49:15.600Z,101626.50
2022-11-26T22:51:42.578Z,101621.38
2022-11-26T22:54:11.675Z,101620.69
2022-11-26T22:56:38.592Z,101623.41
2022-11-26T22:59:06.939Z,101627.00
2022-11-26T23:01:35.273Z,101627.97
2022-11-26T23:04:04.471Z,101623.50
2022-11-26T23:06:32.735Z,101621.66
2022-11-26T23:09:00.489Z,101616.34
2022-11-26T23:11:32.791Z,101616.50
2022-11-26T23:13:59.416Z,101623.41
2022-11-26T23:16:27.115Z,101623.41
2022-11-26T23:18:55.115Z,101623.50
2022-11-26T23:21:27.814Z,101623.53
2022-11-26T23:23:54.992Z,101622.59
2022-11-26T23:26:30.528Z,101614.56
2022-11-26T23:28:58.569Z,101610.09
2022-11-26T23:31:28.503Z,101603.00
2022-11-26T23:33:55.311Z,101597.47
2022-11-26T23:36:22.688Z,101607.13
2022-11-26T23:38:49.517Z,101599.84
2022-11-26T23:41:16.305Z,101606.03
2022-11-26T23:43:43.406Z,101608.63
2022-11-26T23:46:17.237Z,101611.38
2022-11-26T23:48:44.781Z,101608.56
2022-11-26T23:51:16.969Z,101607.63
2022-11-26T23:53:45.577Z,101616.44
2022-11-26T23:56:17.491Z,101608.38
2022-11-26T23:58:43.985Z,101610.97
